KLND/LND METAR and TAF weather

Enter ICAO airport designator
Station Type Date Time Source
KLND METAR 2019/04/25 07:53 UTC NOAA

KLND 250753Z AUTO VRB03KT 10SM OVC095 06/04 A3012 RMK AO2 SLP163 T00610039


Station Type Date Time Source
KLND Decoded METAR 2019/04/25 07:53 UTC NOAA

LANDER HUNT FIELD, WY, United States (KLND) 42-49N 108-44W 1694M
Apr 25, 2019 - 03:53 AM EDT / 2019.04.25 0753 UTC
Wind: Variable at 3 MPH (3 KT):0
Visibility: 10 mile(s):0
Sky conditions: overcast
Temperature: 43.0 F (6.1 C)
Dew Point: 39.0 F (3.9 C)
Relative Humidity: 85%
Pressure (altimeter): 30.12 in. Hg (1019 hPa)
ob: KLND 250753Z AUTO VRB03KT 10SM OVC095 06/04 A3012 RMK AO2 SLP163 T00610039
cycle: 8

Station Type Date Time Source
KLND TAF 2019/04/25 06:24 UTC NOAA

TAF KLND 250521Z 2506/2606 VRB06KT P6SM FEW070 SCT110
FM252000 10007KT P6SM FEW070
FM260200 25007KT P6SM FEW100 SCT200

Example: see airport list